Portales, New Mexico
Current Conditions -  °F | °C
As of 3:58 PM on Friday 19 Dec 2014 (Local Time) from KCVS Reporting Station
Clear Clear  
Wind Chill: 42°   Ceiling: Unl
Heat Index: 46°   Visibility: 9mi
Dew Point: 29°   Wind: 7mph
Humidity: 52%   Direction: 330°NNW
Pressure: 30.1"   Gusts: NA
Location:  34.18°N, 103.33°W
Report Text: KCVS 192258Z AUTO 33006KT 9SM CLR 08/M01 A3010 RMK AO2 SLP189 T00781014 $
Loading
Personal Weather Stations






























Interactive Weather Map New forecast layout! Learn more

10-Day Weather Forecast

Advertisements
Track Severe Weather on mobile